Time;durP1;ratioP1;P1;durP2;ratioP2;P2;SDS_P1;SDS_P2;PMS_P1;PMS_P2;Temp;Humidity;BMP_temperature;BMP_pressure;BME280_temperature;BME280_humidity;BME280_pressure;Samples;Min_cycle;Max_cycle;Signal;HPM_P1;HPM_P2
2024/02/03 00:00:25;;;;;;;3.43;2.30;;;;;16.80;101483.00;;;;2060861;28;20759;-58
2024/02/03 00:01:27;;;;;;;2.87;2.07;;;;;16.80;101485.00;;;;2061190;28;20224;-58
2024/02/03 00:02:27;;;;;;;3.45;2.47;;;;;16.80;101489.00;;;;2061330;28;20254;-57
2024/02/03 00:03:28;;;;;;;3.37;2.20;;;;;16.90;101485.00;;;;2057146;28;20889;-57
2024/02/03 00:04:30;;;;;;;2.70;1.97;;;;;16.80;101491.00;;;;2043044;28;20220;-58
2024/02/03 00:05:30;;;;;;;4.43;2.85;;;;;16.80;101482.00;;;;2057806;28;20642;-57
2024/02/03 00:06:30;;;;;;;4.20;2.87;;;;;16.80;101493.00;;;;2061204;28;20357;-58
2024/02/03 00:07:31;;;;;;;4.00;2.60;;;;;16.80;101507.00;;;;2060573;28;21991;-57
2024/02/03 00:08:31;;;;;;;3.60;2.43;;;;;16.80;101494.00;;;;2052584;28;20688;-58
2024/02/03 00:09:32;;;;;;;3.17;2.07;;;;;16.80;101487.00;;;;2042269;28;20639;-58
2024/02/03 00:10:32;;;;;;;3.80;2.70;;;;;16.80;101492.00;;;;2059181;28;20463;-58
2024/02/03 00:11:32;;;;;;;4.07;2.20;;;;;16.80;101490.00;;;;2061320;28;20227;-58
2024/02/03 00:12:33;;;;;;;3.10;1.90;;;;;16.80;101487.00;;;;2060567;28;20227;-57
2024/02/03 00:13:33;;;;;;;4.60;3.07;;;;;16.80;101491.00;;;;2061086;28;20215;-57
2024/02/03 00:14:33;;;;;;;2.73;1.90;;;;;16.80;101489.00;;;;2050698;28;20222;-57
2024/02/03 00:15:34;;;;;;;3.30;2.20;;;;;16.80;101480.00;;;;2060094;28;20255;-58
2024/02/03 00:16:34;;;;;;;3.50;2.27;;;;;16.80;101482.00;;;;2059896;28;20211;-58
2024/02/03 00:17:34;;;;;;;3.20;2.23;;;;;16.80;101512.00;;;;2060595;28;20216;-57
2024/02/03 00:18:35;;;;;;;3.43;2.30;;;;;16.80;101468.00;;;;2061193;28;20645;-58
2024/02/03 00:19:35;;;;;;;3.40;2.00;;;;;16.80;101469.00;;;;2049811;28;20293;-58
2024/02/03 00:20:35;;;;;;;3.23;2.30;;;;;16.80;101476.00;;;;2061361;28;20630;-58
2024/02/03 00:21:36;;;;;;;3.70;2.47;;;;;16.80;101472.00;;;;2049741;28;20236;-57
2024/02/03 00:22:36;;;;;;;3.27;2.53;;;;;16.80;101470.00;;;;2050683;28;20214;-59
2024/02/03 00:23:37;;;;;;;3.27;2.37;;;;;16.80;101476.00;;;;2060592;28;20222;-57
2024/02/03 00:24:37;;;;;;;3.13;2.37;;;;;16.80;101470.00;;;;2051129;28;20208;-57
2024/02/03 00:25:38;;;;;;;3.03;2.47;;;;;16.80;101469.00;;;;2051260;28;20213;-57
2024/02/03 00:26:38;;;;;;;3.83;2.20;;;;;16.80;101476.00;;;;2052036;28;20288;-57
2024/02/03 00:27:39;;;;;;;3.50;2.23;;;;;16.80;101471.00;;;;2061370;28;20496;-58
2024/02/03 00:28:39;;;;;;;4.30;2.80;;;;;16.80;101470.00;;;;2060535;28;20228;-58
2024/02/03 00:29:39;;;;;;;3.10;2.30;;;;;16.80;101467.00;;;;2051366;28;20330;-57
2024/02/03 00:30:40;;;;;;;3.27;2.30;;;;;16.80;101475.00;;;;2051683;28;20227;-57
2024/02/03 00:31:40;;;;;;;3.73;2.30;;;;;16.80;101464.00;;;;2052240;28;20212;-58
2024/02/03 00:32:40;;;;;;;2.90;2.20;;;;;16.80;101473.00;;;;2060875;28;20212;-57
2024/02/03 00:33:41;;;;;;;3.33;2.30;;;;;16.80;101476.00;;;;2052133;28;20220;-57
2024/02/03 00:34:41;;;;;;;3.03;2.60;;;;;16.80;101467.00;;;;2031043;29;20212;-58
2024/02/03 00:35:41;;;;;;;3.40;2.60;;;;;16.80;101466.00;;;;2050460;28;20248;-58
2024/02/03 00:36:42;;;;;;;2.90;1.57;;;;;16.80;101459.00;;;;2061112;28;20211;-58
2024/02/03 00:37:42;;;;;;;3.00;2.30;;;;;16.80;101467.00;;;;2060294;28;20207;-59
2024/02/03 00:38:42;;;;;;;3.20;2.13;;;;;16.80;101466.00;;;;2060807;28;20326;-58
2024/02/03 00:39:43;;;;;;;3.30;1.97;;;;;16.80;101471.00;;;;2051248;28;20213;-58
2024/02/03 00:40:43;;;;;;;3.07;2.00;;;;;16.80;101461.00;;;;2060830;28;20231;-58
2024/02/03 00:41:43;;;;;;;3.37;2.13;;;;;16.80;101471.00;;;;2057203;28;20260;-59
2024/02/03 00:42:44;;;;;;;3.30;2.17;;;;;16.90;101468.00;;;;2057959;28;20223;-57
2024/02/03 00:43:44;;;;;;;4.23;2.60;;;;;16.80;101486.00;;;;2055274;28;20227;-58
2024/02/03 00:44:44;;;;;;;3.10;2.23;;;;;16.80;101479.00;;;;2046479;28;20678;-57
2024/02/03 00:45:45;;;;;;;3.27;2.60;;;;;16.80;101471.00;;;;2058904;28;20653;-57
2024/02/03 00:46:45;;;;;;;3.50;2.70;;;;;16.80;101465.00;;;;2060948;28;20222;-58
2024/02/03 00:47:45;;;;;;;3.20;2.17;;;;;16.80;101462.00;;;;2059413;28;20223;-57
2024/02/03 00:48:46;;;;;;;3.20;2.20;;;;;16.80;101464.00;;;;2061227;28;20654;-58
2024/02/03 00:49:46;;;;;;;2.70;1.93;;;;;16.80;101460.00;;;;2049865;28;20224;-58
2024/02/03 00:50:46;;;;;;;2.83;2.10;;;;;16.80;101451.00;;;;2061022;28;20367;-58
2024/02/03 00:51:47;;;;;;;3.47;2.03;;;;;16.80;101467.00;;;;2060352;28;20230;-57
2024/02/03 00:52:47;;;;;;;2.90;2.30;;;;;16.80;101452.00;;;;2055843;28;20218;-58
2024/02/03 00:53:47;;;;;;;3.70;2.40;;;;;16.80;101471.00;;;;2052414;28;20217;-58
2024/02/03 00:54:48;;;;;;;3.00;1.90;;;;;16.80;101463.00;;;;2042047;28;20267;-59
2024/02/03 00:55:48;;;;;;;2.90;2.17;;;;;16.80;101467.00;;;;2059610;28;20274;-59
2024/02/03 00:56:49;;;;;;;2.80;2.00;;;;;16.80;101469.00;;;;2051361;28;20287;-58
2024/02/03 00:57:49;;;;;;;5.00;2.10;;;;;16.80;101465.00;;;;2052336;28;20751;-58
2024/02/03 00:58:49;;;;;;;3.10;2.00;;;;;16.80;101473.00;;;;2052134;28;21060;-58
2024/02/03 00:59:50;;;;;;;3.43;2.50;;;;;16.80;101470.00;;;;2041993;28;20228;-57
2024/02/03 01:00:50;;;;;;;2.90;2.00;;;;;16.80;101462.00;;;;2052080;28;20235;-58
2024/02/03 01:01:51;;;;;;;3.17;2.30;;;;;16.80;101463.00;;;;2051586;28;20235;-58
2024/02/03 01:02:51;;;;;;;3.37;2.27;;;;;16.80;101460.00;;;;2061024;28;20231;-58
2024/02/03 01:03:51;;;;;;;3.30;2.33;;;;;16.80;101463.00;;;;2060801;28;20225;-58
2024/02/03 01:04:52;;;;;;;3.33;2.10;;;;;16.80;101470.00;;;;2046833;28;20308;-58
2024/02/03 01:05:52;;;;;;;3.17;2.10;;;;;16.80;101469.00;;;;2059441;28;20225;-57
2024/02/03 01:06:55;;;;;;;3.10;1.87;;;;;16.80;101463.00;;;;2049215;28;20222;-58
2024/02/03 01:07:56;;;;;;;4.05;2.20;;;;;16.80;101468.00;;;;2047890;28;20223;-58
2024/02/03 01:08:56;;;;;;;3.27;2.40;;;;;16.80;101463.00;;;;2048190;28;20310;-57
2024/02/03 01:09:56;;;;;;;3.00;2.07;;;;;16.80;101456.00;;;;2056391;28;20231;-57
2024/02/03 01:10:57;;;;;;;3.20;2.10;;;;;16.80;101457.00;;;;2060725;28;20229;-58
2024/02/03 01:11:57;;;;;;;2.80;2.03;;;;;16.80;101462.00;;;;2057308;28;20222;-57
2024/02/03 01:12:57;;;;;;;3.27;2.13;;;;;16.80;101460.00;;;;2059508;28;20221;-58
2024/02/03 01:13:58;;;;;;;3.20;1.90;;;;;16.80;101474.00;;;;2050034;28;20215;-58
2024/02/03 01:14:58;;;;;;;3.50;2.10;;;;;16.80;101471.00;;;;2060968;28;20250;-58
2024/02/03 01:15:58;;;;;;;2.80;2.10;;;;;16.80;101469.00;;;;2058934;28;20646;-57
2024/02/03 01:16:59;;;;;;;2.83;2.10;;;;;16.80;101473.00;;;;2056945;28;20212;-57
2024/02/03 01:17:59;;;;;;;3.90;2.17;;;;;16.80;101473.00;;;;2060035;28;20222;-58
2024/02/03 01:18:59;;;;;;;3.43;2.30;;;;;16.80;101480.00;;;;2050950;28;20227;-58
2024/02/03 01:20:00;;;;;;;2.80;1.73;;;;;16.80;101472.00;;;;2060931;28;20279;-58
2024/02/03 01:21:01;;;;;;;3.67;2.10;;;;;16.80;101481.00;;;;2060351;28;20211;-58
2024/02/03 01:22:01;;;;;;;3.80;2.40;;;;;16.80;101479.00;;;;2051725;28;20251;-58
2024/02/03 01:23:02;;;;;;;2.90;1.97;;;;;16.80;101471.00;;;;2051054;28;20227;-60
2024/02/03 01:24:02;;;;;;;3.37;1.90;;;;;16.80;101473.00;;;;2050962;28;20240;-59
2024/02/03 01:25:03;;;;;;;3.00;2.07;;;;;16.80;101487.00;;;;2058707;28;20216;-57
2024/02/03 01:26:03;;;;;;;3.20;2.40;;;;;16.80;101487.00;;;;2060734;28;20216;-58
2024/02/03 01:27:05;;;;;;;2.77;1.90;;;;;16.80;101475.00;;;;2060433;28;20207;-58
2024/02/03 01:28:05;;;;;;;2.80;1.80;;;;;16.80;101473.00;;;;2046215;28;20212;-58
2024/02/03 01:29:06;;;;;;;2.87;1.97;;;;;16.80;101485.00;;;;2042732;28;20223;-57
2024/02/03 01:30:06;;;;;;;3.47;2.30;;;;;16.80;101481.00;;;;2058562;28;20252;-57
2024/02/03 01:31:08;;;;;;;3.00;2.03;;;;;16.80;101430.00;;;;2060364;28;20280;-58
2024/02/03 01:32:08;;;;;;;2.85;1.90;;;;;16.80;101473.00;;;;2048456;28;20251;-58
2024/02/03 01:33:09;;;;;;;3.23;2.10;;;;;16.80;101474.00;;;;2049483;28;20213;-58
2024/02/03 01:34:09;;;;;;;3.20;1.70;;;;;16.80;101478.00;;;;2051015;28;20222;-58
2024/02/03 01:35:09;;;;;;;3.47;2.17;;;;;16.80;101480.00;;;;2058962;28;20243;-57
2024/02/03 01:36:10;;;;;;;2.93;2.00;;;;;16.80;101473.00;;;;2060253;28;20259;-57
2024/02/03 01:37:10;;;;;;;3.13;2.20;;;;;16.80;101453.00;;;;2056793;28;20278;-57
2024/02/03 01:38:10;;;;;;;3.13;2.10;;;;;16.80;101474.00;;;;2050430;28;20303;-58
2024/02/03 01:39:11;;;;;;;2.80;2.00;;;;;16.80;101466.00;;;;2039825;28;20213;-58
2024/02/03 01:40:12;;;;;;;3.10;2.07;;;;;16.80;101472.00;;;;2052281;28;20696;-58
2024/02/03 01:41:12;;;;;;;2.60;1.93;;;;;16.80;101475.00;;;;2055077;28;20287;-58
2024/02/03 01:42:13;;;;;;;3.07;2.10;;;;;16.80;101472.00;;;;2060096;28;20463;-57
2024/02/03 01:43:13;;;;;;;2.73;1.90;;;;;16.80;101466.00;;;;2058845;28;20282;-58
2024/02/03 01:44:14;;;;;;;2.80;1.90;;;;;16.80;101462.00;;;;2034110;28;20238;-58
2024/02/03 01:45:14;;;;;;;3.07;1.87;;;;;16.80;101476.00;;;;2042903;28;20713;-57
2024/02/03 01:46:16;;;;;;;2.90;1.63;;;;;16.80;101477.00;;;;2052010;28;20651;-57
2024/02/03 01:47:16;;;;;;;3.10;2.15;;;;;16.70;101466.00;;;;2045517;28;20225;-58
2024/02/03 01:48:17;;;;;;;3.53;2.57;;;;;16.80;101469.00;;;;2045690;29;20607;-58
2024/02/03 01:49:17;;;;;;;3.20;2.30;;;;;16.80;101463.00;;;;2049229;28;20305;-57
2024/02/03 01:50:17;;;;;;;3.00;2.00;;;;;16.80;101465.00;;;;2055412;28;20236;-57
2024/02/03 01:51:18;;;;;;;2.70;1.90;;;;;16.80;101477.00;;;;2044973;28;20660;-57
2024/02/03 01:52:18;;;;;;;2.70;1.87;;;;;16.80;101472.00;;;;2045378;28;20222;-57
2024/02/03 01:53:19;;;;;;;3.40;2.27;;;;;16.80;101470.00;;;;2052954;28;20224;-57
2024/02/03 01:54:19;;;;;;;3.00;1.93;;;;;16.80;101477.00;;;;2035601;29;20236;-57
2024/02/03 01:55:19;;;;;;;2.70;1.73;;;;;16.80;101451.00;;;;2044423;29;20227;-57
2024/02/03 01:56:20;;;;;;;3.00;2.03;;;;;16.80;101468.00;;;;2053219;28;20290;-57
2024/02/03 01:57:20;;;;;;;3.10;2.10;;;;;16.80;101464.00;;;;2053635;28;20224;-58
2024/02/03 01:58:20;;;;;;;4.40;2.03;;;;;16.80;101498.00;;;;2043856;28;20222;-57
2024/02/03 01:59:21;;;;;;;2.40;1.80;;;;;16.80;101478.00;;;;2043483;28;20705;-58
2024/02/03 02:00:21;;;;;;;2.67;1.60;;;;;16.80;101469.00;;;;2061977;28;20220;-58
2024/02/03 02:01:22;;;;;;;3.30;2.13;;;;;16.80;101468.00;;;;2053082;28;20481;-58
2024/02/03 02:02:22;;;;;;;2.80;2.00;;;;;16.80;101464.00;;;;2027882;29;20293;-58
2024/02/03 02:03:22;;;;;;;2.53;1.83;;;;;16.80;101466.00;;;;2044501;28;20245;-58
2024/02/03 02:04:23;;;;;;;2.63;1.67;;;;;16.80;101461.00;;;;2043432;28;21155;-58
2024/02/03 02:05:24;;;;;;;2.70;1.80;;;;;16.80;101457.00;;;;2048786;28;21031;-58
2024/02/03 02:06:24;;;;;;;2.90;2.30;;;;;16.80;101465.00;;;;2042210;28;20668;-58
2024/02/03 02:07:25;;;;;;;3.50;2.20;;;;;16.80;101469.00;;;;2053289;28;20224;-58
2024/02/03 02:08:38;;;;;;;2.80;1.93;;;;;16.80;101464.00;;;;2061357;28;20233;-58
2024/02/03 02:09:38;;;;;;;3.30;2.15;;;;;16.80;101474.00;;;;2033755;29;20242;-58
2024/02/03 02:10:38;;;;;;;2.30;1.70;;;;;16.80;101464.00;;;;2040056;28;20238;-58
2024/02/03 02:11:39;;;;;;;2.60;1.90;;;;;16.80;101466.00;;;;2062177;28;20259;-58
2024/02/03 02:12:39;;;;;;;3.50;2.10;;;;;16.80;101477.00;;;;2052952;28;20216;-58
2024/02/03 02:13:39;;;;;;;3.60;2.30;;;;;16.80;101460.00;;;;2043231;29;20674;-57
2024/02/03 02:14:40;;;;;;;2.57;1.73;;;;;16.80;101465.00;;;;2043255;28;20682;-58
2024/02/03 02:15:40;;;;;;;3.00;1.97;;;;;16.80;101464.00;;;;2051844;28;20255;-57
2024/02/03 02:16:40;;;;;;;2.60;1.73;;;;;16.80;101460.00;;;;2053549;28;20261;-57
2024/02/03 02:17:41;;;;;;;2.83;1.70;;;;;16.80;101460.00;;;;2059086;28;20211;-58
2024/02/03 02:18:41;;;;;;;2.63;2.10;;;;;16.80;101463.00;;;;2062045;28;20211;-58
2024/02/03 02:19:41;;;;;;;2.90;2.10;;;;;16.80;101466.00;;;;2051690;28;20216;-57
2024/02/03 02:20:42;;;;;;;2.80;2.10;;;;;16.80;101461.00;;;;2061907;28;20223;-58
2024/02/03 02:21:42;;;;;;;2.40;1.80;;;;;16.80;101464.00;;;;2061438;28;20236;-58
2024/02/03 02:22:42;;;;;;;2.63;1.60;;;;;16.80;101460.00;;;;2061011;28;20269;-58
2024/02/03 02:23:43;;;;;;;2.30;1.47;;;;;16.80;101461.00;;;;2062210;28;20217;-58
2024/02/03 02:24:43;;;;;;;2.73;2.03;;;;;16.80;101464.00;;;;2051191;28;20221;-58
2024/02/03 02:25:43;;;;;;;4.40;1.97;;;;;16.80;101450.00;;;;2060824;28;20746;-58
2024/02/03 02:26:44;;;;;;;2.50;1.77;;;;;16.80;101460.00;;;;2060420;28;20836;-58
2024/02/03 02:27:44;;;;;;;3.00;2.13;;;;;16.80;101453.00;;;;2062140;28;20682;-58
2024/02/03 02:28:44;;;;;;;2.40;1.60;;;;;16.80;101456.00;;;;2052063;28;20716;-58
2024/02/03 02:29:45;;;;;;;2.60;1.97;;;;;16.80;101450.00;;;;2043601;28;20236;-58
2024/02/03 02:30:45;;;;;;;2.57;1.70;;;;;16.80;101450.00;;;;2061787;28;20241;-57
2024/02/03 02:31:45;;;;;;;2.60;1.60;;;;;16.80;101445.00;;;;2061308;28;20298;-58
2024/02/03 02:32:46;;;;;;;2.67;2.03;;;;;16.80;101450.00;;;;2061433;28;20205;-58
2024/02/03 02:33:46;;;;;;;2.67;1.97;;;;;16.80;101444.00;;;;2059696;28;20212;-57
2024/02/03 02:34:46;;;;;;;2.93;1.60;;;;;16.80;101459.00;;;;2051808;28;20450;-57
2024/02/03 02:35:49;;;;;;;2.67;1.67;;;;;16.80;101450.00;;;;2051460;28;20203;-58
2024/02/03 02:36:50;;;;;;;3.15;1.85;;;;;16.80;101449.00;;;;2045106;28;20750;-58
2024/02/03 02:37:51;;;;;;;2.80;1.70;;;;;16.80;101451.00;;;;2053445;28;20209;-58
2024/02/03 02:38:51;;;;;;;2.88;2.10;;;;;16.80;101448.00;;;;2060573;28;20303;-58
2024/02/03 02:39:52;;;;;;;2.57;1.57;;;;;16.80;101456.00;;;;2052210;28;20610;-59
2024/02/03 02:40:52;;;;;;;2.43;1.87;;;;;16.80;101439.00;;;;2061866;28;20759;-58
2024/02/03 02:41:53;;;;;;;3.30;2.00;;;;;16.80;101450.00;;;;2051776;28;20690;-57
2024/02/03 02:42:54;;;;;;;2.50;1.57;;;;;16.80;101454.00;;;;2052337;28;20213;-58
2024/02/03 02:43:54;;;;;;;3.20;2.10;;;;;16.80;101454.00;;;;2052017;28;20240;-58
2024/02/03 02:44:55;;;;;;;2.67;1.93;;;;;16.80;101444.00;;;;2060058;28;20319;-57
2024/02/03 02:45:55;;;;;;;4.00;1.90;;;;;16.80;101446.00;;;;2059866;28;20219;-58
2024/02/03 02:46:56;;;;;;;2.60;1.80;;;;;16.80;101442.00;;;;2052989;28;20476;-57
2024/02/03 02:47:56;;;;;;;2.60;1.80;;;;;16.80;101441.00;;;;2044250;28;20210;-57
2024/02/03 02:48:57;;;;;;;3.00;1.97;;;;;16.80;101430.00;;;;2043508;28;20217;-58
2024/02/03 02:49:57;;;;;;;3.23;2.20;;;;;16.80;101440.00;;;;2061770;28;20353;-57
2024/02/03 02:50:57;;;;;;;2.80;1.90;;;;;16.80;101439.00;;;;2061205;28;20212;-57
2024/02/03 02:51:58;;;;;;;2.90;2.00;;;;;16.80;101434.00;;;;2053155;28;20238;-58
2024/02/03 02:52:58;;;;;;;2.93;2.07;;;;;16.80;101435.00;;;;2052340;28;20233;-58
2024/02/03 02:53:58;;;;;;;2.47;1.83;;;;;16.80;101434.00;;;;2051708;28;20233;-59
2024/02/03 02:54:59;;;;;;;2.70;1.70;;;;;16.80;101420.00;;;;2063231;28;20600;-58
2024/02/03 02:55:59;;;;;;;2.63;1.70;;;;;16.80;101416.00;;;;2063464;28;20230;-58
2024/02/03 02:56:59;;;;;;;2.70;1.60;;;;;16.80;101420.00;;;;2061569;28;20303;-58
2024/02/03 02:58:00;;;;;;;3.00;2.10;;;;;16.80;101427.00;;;;2057398;28;20224;-58
2024/02/03 02:59:00;;;;;;;2.80;1.93;;;;;16.80;101422.00;;;;2051852;28;20239;-58
2024/02/03 03:00:00;;;;;;;2.77;1.80;;;;;16.80;101421.00;;;;2052458;28;20221;-58
2024/02/03 03:01:01;;;;;;;3.10;2.30;;;;;16.80;101418.00;;;;2051152;28;20220;-59
2024/02/03 03:02:01;;;;;;;2.53;1.70;;;;;16.80;101423.00;;;;2061295;28;20212;-57
2024/02/03 03:03:01;;;;;;;2.63;1.83;;;;;16.80;101420.00;;;;2061383;28;20228;-58
2024/02/03 03:04:02;;;;;;;2.47;1.60;;;;;16.80;101419.00;;;;2049097;28;20263;-57
2024/02/03 03:05:03;;;;;;;2.80;1.80;;;;;16.80;101418.00;;;;2060818;28;20219;-57
2024/02/03 03:06:04;;;;;;;2.50;1.92;;;;;16.80;101417.00;;;;2052748;28;20562;-57
2024/02/03 03:07:04;;;;;;;2.63;1.90;;;;;16.80;101418.00;;;;2050714;28;20584;-58
2024/02/03 03:08:05;;;;;;;2.77;1.87;;;;;16.80;101421.00;;;;2061544;28;20231;-57
2024/02/03 03:09:05;;;;;;;2.87;1.67;;;;;16.80;101417.00;;;;2051550;28;20253;-57
2024/02/03 03:10:06;;;;;;;2.80;2.20;;;;;16.80;101422.00;;;;2061706;28;20324;-58
2024/02/03 03:11:06;;;;;;;2.80;2.10;;;;;16.80;101420.00;;;;2061622;28;20224;-58
2024/02/03 03:12:06;;;;;;;3.03;1.83;;;;;16.80;101419.00;;;;2059142;28;20223;-57
2024/02/03 03:13:07;;;;;;;3.17;2.20;;;;;16.80;101423.00;;;;2060997;28;20232;-58
2024/02/03 03:14:07;;;;;;;2.57;1.90;;;;;16.80;101422.00;;;;2051448;28;20256;-58
2024/02/03 03:15:08;;;;;;;2.63;2.30;;;;;16.80;101428.00;;;;2051678;28;20228;-58
2024/02/03 03:16:11;;;;;;;2.70;2.07;;;;;16.80;101425.00;;;;2052504;28;20275;-58
2024/02/03 03:17:11;;;;;;;2.72;2.25;;;;;16.80;101429.00;;;;2059558;28;20592;-57
2024/02/03 03:18:12;;;;;;;2.47;1.73;;;;;16.80;101425.00;;;;2061671;28;20217;-58
2024/02/03 03:19:12;;;;;;;3.20;2.07;;;;;16.80;101425.00;;;;2051182;28;20235;-57
2024/02/03 03:20:12;;;;;;;2.50;1.80;;;;;16.80;101424.00;;;;2057581;28;20235;-57
2024/02/03 03:21:13;;;;;;;2.53;1.77;;;;;16.80;101423.00;;;;2052481;28;20225;-57
2024/02/03 03:22:15;;;;;;;2.63;2.00;;;;;16.80;101416.00;;;;2052530;28;20241;-58
2024/02/03 03:23:16;;;;;;;2.42;1.50;;;;;16.80;101418.00;;;;2059611;28;20262;-59
2024/02/03 03:24:16;;;;;;;2.80;1.90;;;;;16.80;101404.00;;;;2047666;28;20228;-58
2024/02/03 03:25:16;;;;;;;2.43;1.87;;;;;16.80;101415.00;;;;2058958;28;20231;-58
2024/02/03 03:26:17;;;;;;;2.60;1.50;;;;;16.80;101411.00;;;;2061028;28;20235;-58
2024/02/03 03:27:18;;;;;;;2.90;1.53;;;;;16.80;101405.00;;;;2058202;28;20231;-58
2024/02/03 03:28:18;;;;;;;2.50;1.80;;;;;16.80;101413.00;;;;2057235;28;20698;-58
2024/02/03 03:29:19;;;;;;;2.70;1.93;;;;;16.50;101413.00;;;;2050670;28;20229;-58
2024/02/03 03:30:19;;;;;;;2.73;1.93;;;;;16.80;101411.00;;;;2060899;28;20259;-58
2024/02/03 03:31:19;;;;;;;2.70;1.93;;;;;16.80;101417.00;;;;2061095;28;20219;-58
2024/02/03 03:32:20;;;;;;;2.77;1.87;;;;;16.80;101415.00;;;;2052657;28;20225;-58
2024/02/03 03:33:20;;;;;;;2.77;1.77;;;;;16.80;101412.00;;;;2052094;28;20249;-58
2024/02/03 03:34:21;;;;;;;2.67;1.67;;;;;16.80;101412.00;;;;2050032;28;20283;-57
2024/02/03 03:35:21;;;;;;;2.50;1.80;;;;;16.80;101412.00;;;;2055356;28;20294;-58
2024/02/03 03:36:21;;;;;;;3.53;2.43;;;;;16.80;101414.00;;;;2059064;28;20228;-58
2024/02/03 03:37:21;;;;;;;3.13;2.00;;;;;16.80;101413.00;;;;2060394;28;20304;-58
2024/02/03 03:38:23;;;;;;;2.40;1.90;;;;;16.80;101418.00;;;;2061319;28;20250;-58
2024/02/03 03:39:23;;;;;;;2.50;1.83;;;;;16.80;101416.00;;;;2051542;28;20237;-58
2024/02/03 03:40:24;;;;;;;3.00;2.13;;;;;16.80;101427.00;;;;2058819;28;20298;-58
2024/02/03 03:41:24;;;;;;;2.80;2.00;;;;;16.80;101433.00;;;;2052687;28;20213;-57
2024/02/03 03:42:25;;;;;;;2.60;2.00;;;;;16.80;101429.00;;;;2048674;28;20228;-58
2024/02/03 03:43:25;;;;;;;2.87;2.03;;;;;16.80;101415.00;;;;2047798;28;20235;-58
2024/02/03 03:44:26;;;;;;;3.20;2.30;;;;;16.80;101431.00;;;;2051341;28;20325;-57
2024/02/03 03:45:26;;;;;;;2.50;1.73;;;;;16.80;101423.00;;;;2060847;28;20248;-57
2024/02/03 03:46:26;;;;;;;2.33;1.63;;;;;16.80;101429.00;;;;2055480;28;20274;-58
2024/02/03 03:47:27;;;;;;;3.30;1.87;;;;;16.80;101415.00;;;;2060811;28;20227;-58
2024/02/03 03:48:28;;;;;;;2.70;2.03;;;;;16.80;101422.00;;;;2061490;28;20928;-58
2024/02/03 03:49:32;;;;;;;2.63;1.90;;;;;16.80;101418.00;;;;2050284;28;20489;-57
2024/02/03 03:50:32;;;;;;;2.60;1.80;;;;;16.80;101422.00;;;;2061417;28;20246;-58
2024/02/03 03:51:32;;;;;;;3.20;2.00;;;;;16.80;101432.00;;;;2059654;28;20258;-58
2024/02/03 03:52:33;;;;;;;2.60;1.80;;;;;16.80;101426.00;;;;2062369;28;20228;-57
2024/02/03 03:53:34;;;;;;;2.47;1.97;;;;;16.80;101422.00;;;;2060977;28;22349;-58
2024/02/03 03:54:34;;;;;;;3.25;1.90;;;;;16.80;101425.00;;;;2049660;28;20228;-58
2024/02/03 03:55:35;;;;;;;2.73;1.70;;;;;16.80;101411.00;;;;2060009;28;20227;-58
2024/02/03 03:56:35;;;;;;;2.77;1.80;;;;;16.80;101423.00;;;;2051711;28;20242;-57
2024/02/03 03:57:35;;;;;;;2.90;1.93;;;;;16.80;101421.00;;;;2052687;28;20233;-58
2024/02/03 03:58:36;;;;;;;2.70;1.87;;;;;16.80;101426.00;;;;2060562;28;20227;-58
2024/02/03 03:59:36;;;;;;;2.70;2.10;;;;;16.80;101418.00;;;;2051482;28;20220;-58
2024/02/03 04:00:37;;;;;;;3.73;2.10;;;;;16.80;101431.00;;;;2060882;28;20224;-58
2024/02/03 04:01:38;;;;;;;2.60;1.97;;;;;16.80;101419.00;;;;2061328;28;20626;-58
2024/02/03 04:02:39;;;;;;;2.67;1.70;;;;;16.80;101422.00;;;;2060880;28;20244;-58
2024/02/03 04:03:39;;;;;;;3.00;2.20;;;;;16.80;101426.00;;;;2051393;28;20279;-57
2024/02/03 04:04:39;;;;;;;2.23;1.53;;;;;16.80;101425.00;;;;2042635;28;20455;-58
2024/02/03 04:05:40;;;;;;;2.97;2.27;;;;;16.80;101427.00;;;;2057558;28;20224;-58
2024/02/03 04:06:41;;;;;;;2.83;2.10;;;;;16.80;101420.00;;;;2060801;28;20221;-57
2024/02/03 04:07:41;;;;;;;2.90;2.00;;;;;16.80;101419.00;;;;2061363;28;20510;-57
2024/02/03 04:08:41;;;;;;;2.90;1.90;;;;;16.80;101424.00;;;;2060553;28;20240;-59
2024/02/03 04:09:47;;;;;;;2.90;1.70;;;;;16.80;101424.00;;;;2050701;28;20224;-57
2024/02/03 04:10:48;;;;;;;2.90;2.05;;;;;16.80;101424.00;;;;2059344;28;20228;-58
2024/02/03 04:11:48;;;;;;;2.70;1.90;;;;;16.80;101411.00;;;;2061260;28;20212;-58
2024/02/03 04:12:49;;;;;;;2.67;1.67;;;;;16.80;101405.00;;;;2057733;28;20271;-58
2024/02/03 04:13:49;;;;;;;2.47;1.77;;;;;16.80;101477.00;;;;2058748;28;20583;-58
2024/02/03 04:14:51;;;;;;;2.30;1.40;;;;;16.80;101411.00;;;;2050813;28;20610;-58
2024/02/03 04:15:53;;;;;;;2.58;1.90;;;;;16.80;101412.00;;;;2057695;28;20456;-58
2024/02/03 04:16:53;;;;;;;2.42;1.55;;;;;16.80;101411.00;;;;2061284;28;20220;-58
2024/02/03 04:17:54;;;;;;;2.20;1.50;;;;;16.80;101404.00;;;;2060597;28;20776;-57
2024/02/03 04:18:54;;;;;;;2.43;1.70;;;;;16.80;101407.00;;;;2044205;28;20692;-58
2024/02/03 04:19:55;;;;;;;2.30;1.80;;;;;16.80;101410.00;;;;2051916;28;20292;-58
2024/02/03 04:20:55;;;;;;;2.37;1.70;;;;;16.80;101397.00;;;;2061106;28;20303;-57
2024/02/03 04:21:55;;;;;;;2.97;1.70;;;;;16.80;101398.00;;;;2060600;28;20238;-58
2024/02/03 04:22:56;;;;;;;2.50;1.73;;;;;16.80;101407.00;;;;2060916;28;20240;-58
2024/02/03 04:23:56;;;;;;;3.33;1.87;;;;;16.80;101405.00;;;;2050855;28;20214;-58
2024/02/03 04:24:56;;;;;;;2.60;1.70;;;;;16.80;101403.00;;;;2060702;28;20577;-57
2024/02/03 04:25:57;;;;;;;2.60;1.73;;;;;16.80;101403.00;;;;2059253;28;20211;-58
2024/02/03 04:26:57;;;;;;;2.63;1.70;;;;;16.30;101403.00;;;;2058454;28;20206;-58
2024/02/03 04:27:57;;;;;;;2.90;2.03;;;;;16.80;101396.00;;;;2060939;28;20242;-57
2024/02/03 04:28:58;;;;;;;2.73;1.60;;;;;16.80;101395.00;;;;2050534;28;20240;-58
2024/02/03 04:29:59;;;;;;;2.50;1.80;;;;;16.30;101407.00;;;;2056916;28;20226;-58
2024/02/03 04:31:03;;;;;;;2.63;1.80;;;;;16.80;101396.00;;;;2060653;28;20216;-58
2024/02/03 04:32:03;;;;;;;3.10;2.10;;;;;16.80;101399.00;;;;2055357;28;20592;-59
2024/02/03 04:33:04;;;;;;;2.30;1.57;;;;;16.80;101397.00;;;;2052023;28;20218;-58
2024/02/03 04:34:05;;;;;;;3.10;2.10;;;;;16.80;101395.00;;;;2049517;28;20242;-57
2024/02/03 04:35:06;;;;;;;3.53;2.20;;;;;16.80;101381.00;;;;2059550;28;20518;-58
2024/02/03 04:36:06;;;;;;;2.40;1.70;;;;;16.80;101393.00;;;;2053061;28;20217;-58
2024/02/03 04:37:08;;;;;;;2.30;1.57;;;;;16.80;101384.00;;;;2055255;28;20614;-58
2024/02/03 04:38:08;;;;;;;2.50;1.60;;;;;16.80;101396.00;;;;2060997;28;20219;-57
2024/02/03 04:39:08;;;;;;;2.80;1.73;;;;;16.80;101401.00;;;;2050192;28;20243;-58
2024/02/03 04:40:09;;;;;;;2.50;1.80;;;;;16.80;101398.00;;;;2045808;28;20230;-58
2024/02/03 04:41:22;;;;;;;2.43;1.70;;;;;16.70;101397.00;;;;2045707;28;20241;-58
2024/02/03 04:42:23;;;;;;;2.78;1.80;;;;;16.70;101395.00;;;;2060676;28;20246;-57
2024/02/03 04:43:23;;;;;;;2.50;1.90;;;;;16.80;101399.00;;;;2060871;28;20216;-58
2024/02/03 04:44:24;;;;;;;2.87;1.90;;;;;16.80;101399.00;;;;2050520;28;20712;-58
2024/02/03 04:45:24;;;;;;;2.80;2.10;;;;;16.80;101396.00;;;;2059689;28;20221;-58
2024/02/03 04:46:25;;;;;;;2.70;2.10;;;;;16.80;101399.00;;;;2059464;28;20474;-58
2024/02/03 04:47:25;;;;;;;2.60;1.60;;;;;16.80;101411.00;;;;2059148;28;20216;-57
2024/02/03 04:48:26;;;;;;;2.67;1.70;;;;;16.80;101391.00;;;;2056507;28;20834;-57
2024/02/03 04:49:26;;;;;;;2.40;1.70;;;;;16.80;101392.00;;;;2048815;28;20688;-57
2024/02/03 04:50:27;;;;;;;2.47;1.70;;;;;16.70;101399.00;;;;2058569;28;20234;-58
2024/02/03 04:51:29;;;;;;;2.75;2.00;;;;;16.70;101394.00;;;;2061112;28;20237;-58
2024/02/03 04:52:29;;;;;;;3.35;2.00;;;;;16.80;101393.00;;;;2060872;28;20246;-57
2024/02/03 04:53:29;;;;;;;2.80;1.90;;;;;16.70;101395.00;;;;2059505;28;20234;-58
2024/02/03 04:54:30;;;;;;;2.30;1.50;;;;;16.80;101395.00;;;;2051245;28;20232;-57
2024/02/03 04:55:30;;;;;;;3.03;1.90;;;;;16.80;101392.00;;;;2059229;28;20216;-58
2024/02/03 04:56:31;;;;;;;2.77;2.00;;;;;16.80;101387.00;;;;2058620;28;20217;-58
2024/02/03 04:57:31;;;;;;;2.77;1.70;;;;;16.70;101390.00;;;;2059559;28;20227;-57
2024/02/03 04:58:31;;;;;;;2.60;1.87;;;;;16.70;101386.00;;;;2060643;28;20386;-58
2024/02/03 04:59:32;;;;;;;2.40;1.70;;;;;16.80;101381.00;;;;2042735;28;20228;-58